Time;durP1;ratioP1;P1;durP2;ratioP2;P2;SDS_P1;SDS_P2;PMS_P1;PMS_P2;Temp;Humidity;BMP_temperature;BMP_pressure;BME280_temperature;BME280_humidity;BME280_pressure;Samples;Min_cycle;Max_cycle;Signal;HPM_P1;HPM_P2
2021/11/16 00:01:27;;;;;;;28.03;24.93;;;6.70;99.90;;;;;;5024939;28;20216;-79
2021/11/16 00:03:55;;;;;;;30.23;23.80;;;6.70;99.90;;;;;;5024404;28;20252;-79
2021/11/16 00:06:22;;;;;;;27.53;24.33;;;6.70;99.90;;;;;;5025774;28;20205;-79
2021/11/16 00:08:49;;;;;;;27.23;22.03;;;6.70;99.90;;;;;;5027232;28;20268;-79
2021/11/16 00:11:16;;;;;;;27.53;23.77;;;6.70;99.90;;;;;;5023322;28;20256;-79
2021/11/16 00:13:44;;;;;;;29.53;25.10;;;6.70;99.90;;;;;;5024287;28;20200;-80
2021/11/16 00:16:12;;;;;;;27.60;24.60;;;6.70;99.90;;;;;;5021334;28;20294;-80
2021/11/16 00:18:39;;;;;;;25.97;23.10;;;6.70;99.90;;;;;;5020135;28;20204;-79
2021/11/16 00:21:08;;;;;;;26.67;23.77;;;6.70;99.90;;;;;;5019653;28;20658;-79
2021/11/16 00:23:36;;;;;;;26.20;23.33;;;6.70;99.90;;;;;;5021430;28;20804;-79
2021/11/16 00:26:06;;;;;;;26.07;21.93;;;6.70;99.90;;;;;;5022660;28;20717;-79
2021/11/16 00:28:33;;;;;;;25.30;22.57;;;6.70;99.90;;;;;;5021505;28;20191;-78
2021/11/16 00:31:00;;;;;;;25.23;22.53;;;6.70;99.90;;;;;;5021434;28;20275;-80
2021/11/16 00:33:30;;;;;;;26.47;23.47;;;6.70;99.90;;;;;;5013471;28;20751;-79
2021/11/16 00:35:58;;;;;;;29.00;23.87;;;6.70;99.90;;;;;;5024877;28;20275;-79
2021/11/16 00:38:26;;;;;;;24.53;21.97;;;6.70;99.90;;;;;;5018507;28;20196;-79
2021/11/16 00:40:55;;;;;;;25.67;22.97;;;6.70;99.90;;;;;;5019328;28;20206;-79
2021/11/16 00:43:22;;;;;;;27.97;23.13;;;6.70;99.90;;;;;;5023882;28;20228;-80
2021/11/16 00:45:49;;;;;;;26.40;23.60;;;6.70;99.90;;;;;;5022184;28;20198;-79
2021/11/16 00:48:20;;;;;;;25.53;22.83;;;6.70;99.90;;;;;;5021228;28;20204;-79
2021/11/16 00:50:52;;;;;;;30.03;25.80;;;6.70;99.90;;;;;;5020670;28;20204;-80
2021/11/16 00:53:20;;;;;;;30.13;24.60;;;6.70;99.90;;;;;;5021882;28;20247;-79
2021/11/16 00:55:47;;;;;;;25.70;22.90;;;6.70;99.90;;;;;;5024699;28;20220;-79
2021/11/16 00:58:14;;;;;;;27.20;23.10;;;6.60;99.90;;;;;;5017253;28;20251;-79
2021/11/16 01:00:42;;;;;;;27.37;24.43;;;6.60;99.90;;;;;;5020191;28;20197;-79
2021/11/16 01:03:10;;;;;;;27.17;23.90;;;6.60;99.90;;;;;;5022987;28;20597;-79
2021/11/16 01:05:39;;;;;;;27.33;24.40;;;6.60;99.90;;;;;;5022774;28;20196;-79
2021/11/16 01:08:08;;;;;;;27.23;23.30;;;6.60;99.90;;;;;;5024063;28;20196;-79
2021/11/16 01:10:35;;;;;;;26.33;23.10;;;6.60;99.90;;;;;;5020379;28;20192;-79
2021/11/16 01:13:03;;;;;;;24.83;22.17;;;6.70;99.90;;;;;;5018700;28;20222;-79
2021/11/16 01:15:31;;;;;;;26.83;23.73;;;6.70;99.90;;;;;;5022832;28;20233;-79
2021/11/16 01:17:59;;;;;;;24.73;22.10;;;6.60;99.90;;;;;;5023576;28;20661;-80
2021/11/16 01:20:25;;;;;;;25.17;22.47;;;6.70;99.90;;;;;;5032365;28;20354;-79
2021/11/16 01:22:55;;;;;;;25.47;22.60;;;6.60;99.90;;;;;;5032912;28;20270;-80
2021/11/16 01:25:24;;;;;;;26.70;23.87;;;6.70;99.90;;;;;;5023534;28;20201;-79
2021/11/16 01:27:53;;;;;;;28.40;23.47;;;6.60;99.90;;;;;;5020835;28;20207;-80
2021/11/16 01:30:22;;;;;;;26.20;23.40;;;6.60;99.90;;;;;;5023017;28;20200;-79
2021/11/16 01:32:58;;;;;;;27.43;23.57;;;6.60;99.90;;;;;;5016813;28;20229;-80
2021/11/16 01:35:24;;;;;;;31.17;23.30;;;6.60;99.90;;;;;;5017269;28;20184;-79
2021/11/16 01:37:51;;;;;;;25.23;22.63;;;6.50;99.90;;;;;;5024741;28;20234;-80
2021/11/16 01:40:19;;;;;;;29.70;24.50;;;6.50;99.90;;;;;;5014070;28;20197;-78
2021/11/16 01:42:51;;;;;;;30.93;24.37;;;6.60;99.90;;;;;;5019777;28;20705;-79
2021/11/16 01:45:19;;;;;;;26.77;23.47;;;6.60;99.90;;;;;;5023441;28;20316;-80
2021/11/16 01:47:47;;;;;;;26.87;22.77;;;6.60;99.90;;;;;;5015929;28;20236;-79
2021/11/16 01:50:16;;;;;;;30.83;25.73;;;6.60;99.90;;;;;;5022689;28;20700;-79
2021/11/16 01:52:42;;;;;;;25.67;22.87;;;6.50;99.90;;;;;;5019395;28;20637;-79
2021/11/16 01:55:11;;;;;;;28.23;23.83;;;6.60;99.90;;;;;;5015427;28;20209;-79
2021/11/16 01:57:38;;;;;;;28.27;23.43;;;6.60;99.90;;;;;;5024521;28;20193;-79
2021/11/16 02:00:12;;;;;;;32.33;23.43;;;6.60;99.90;;;;;;5018662;28;20228;-79
2021/11/16 02:02:39;;;;;;;28.97;24.13;;;6.60;99.90;;;;;;5023372;28;20273;-79
2021/11/16 02:05:07;;;;;;;25.37;22.77;;;6.60;99.90;;;;;;5021708;28;20662;-80
2021/11/16 02:07:35;;;;;;;24.60;22.00;;;6.60;99.90;;;;;;5021871;28;20204;-79
2021/11/16 02:10:02;;;;;;;24.33;21.87;;;6.60;99.90;;;;;;5024134;28;20188;-80
2021/11/16 02:12:29;;;;;;;25.87;23.03;;;6.60;99.90;;;;;;5011383;28;20274;-79
2021/11/16 02:14:55;;;;;;;29.90;23.43;;;6.60;99.90;;;;;;5016925;28;20212;-79
2021/11/16 02:17:24;;;;;;;24.57;22.07;;;6.60;99.90;;;;;;5020695;28;20201;-79
2021/11/16 02:19:51;;;;;;;25.27;22.53;;;6.60;99.90;;;;;;5021254;28;20209;-79
2021/11/16 02:22:19;;;;;;;26.97;22.53;;;6.60;99.90;;;;;;5021757;28;20248;-80
2021/11/16 02:24:48;;;;;;;23.30;20.80;;;6.60;99.90;;;;;;5022228;28;20209;-79
2021/11/16 02:27:15;;;;;;;24.43;21.83;;;6.60;99.90;;;;;;5023489;28;20278;-79
2021/11/16 02:29:42;;;;;;;24.50;22.00;;;6.60;99.90;;;;;;5024586;28;20251;-79
2021/11/16 02:32:09;;;;;;;23.93;21.33;;;6.60;99.90;;;;;;5021146;28;20730;-79
2021/11/16 02:34:36;;;;;;;24.53;22.13;;;6.60;99.90;;;;;;5025923;28;20662;-79
2021/11/16 02:37:04;;;;;;;25.23;22.17;;;6.60;99.90;;;;;;5023356;28;20201;-79
2021/11/16 02:39:32;;;;;;;25.10;22.43;;;6.50;99.90;;;;;;5026954;28;20193;-79
2021/11/16 02:42:00;;;;;;;25.07;22.37;;;6.50;99.90;;;;;;5025421;28;20243;-79
2021/11/16 02:44:27;;;;;;;26.23;22.50;;;6.50;99.90;;;;;;5018985;28;20444;-79
2021/11/16 02:46:54;;;;;;;24.37;21.77;;;6.50;99.90;;;;;;5023398;28;20201;-79
2021/11/16 02:49:21;;;;;;;24.10;21.53;;;6.50;99.90;;;;;;5026501;28;20263;-80
2021/11/16 02:51:48;;;;;;;25.17;22.47;;;6.50;99.90;;;;;;5023335;28;20275;-79
2021/11/16 02:54:17;;;;;;;24.30;21.60;;;6.50;99.90;;;;;;5022128;28;20200;-79
2021/11/16 02:56:47;;;;;;;26.50;22.63;;;6.40;99.90;;;;;;5020792;28;20263;-79
2021/11/16 02:59:14;;;;;;;23.53;20.90;;;6.50;99.90;;;;;;5025142;28;20200;-79
2021/11/16 03:01:41;;;;;;;24.60;22.07;;;6.50;99.90;;;;;;5022983;28;20225;-79
2021/11/16 03:04:09;;;;;;;24.70;22.07;;;6.50;99.90;;;;;;5021656;28;20646;-79
2021/11/16 03:06:36;;;;;;;24.50;22.00;;;6.50;99.90;;;;;;5024721;28;20208;-79
2021/11/16 03:09:04;;;;;;;23.17;20.73;;;6.50;99.90;;;;;;5022855;28;20296;-79
2021/11/16 03:11:30;;;;;;;24.20;21.60;;;6.50;99.90;;;;;;5025531;28;20236;-79
2021/11/16 03:13:59;;;;;;;23.70;21.30;;;6.40;99.90;;;;;;5031195;28;20262;-79
2021/11/16 03:16:25;;;;;;;24.70;22.17;;;6.50;99.90;;;;;;5016531;28;20201;-80
2021/11/16 03:18:54;;;;;;;24.70;22.10;;;6.50;99.90;;;;;;5015677;28;20665;-81
2021/11/16 03:21:23;;;;;;;23.60;21.20;;;6.40;99.90;;;;;;5014112;28;20197;-80
2021/11/16 03:23:51;;;;;;;22.67;20.37;;;6.40;99.90;;;;;;5023146;28;20236;-79
2021/11/16 03:26:21;;;;;;;24.07;21.83;;;6.40;99.90;;;;;;5028706;28;20235;-79
2021/11/16 03:28:51;;;;;;;22.40;20.27;;;6.40;99.90;;;;;;5022250;28;20299;-79
2021/11/16 03:31:21;;;;;;;24.30;20.80;;;6.40;99.90;;;;;;5020298;28;20264;-79
2021/11/16 03:33:50;;;;;;;23.30;20.90;;;6.40;99.90;;;;;;5022714;28;20204;-80
2021/11/16 03:36:18;;;;;;;22.20;20.00;;;6.40;99.90;;;;;;5025411;28;20229;-79
2021/11/16 03:38:45;;;;;;;23.23;20.33;;;6.40;99.90;;;;;;5025257;28;20193;-79
2021/11/16 03:41:13;;;;;;;24.67;22.03;;;6.40;99.90;;;;;;5024615;28;20201;-79
2021/11/16 03:44:11;;;;;;;24.03;21.43;;;6.40;99.90;;;;;;5028896;28;20226;-81
2021/11/16 03:46:39;;;;;;;23.33;20.40;;;6.40;99.90;;;;;;5022233;28;20208;-81
2021/11/16 03:49:06;;;;;;;23.70;21.23;;;6.40;99.90;;;;;;5024229;28;20200;-79
2021/11/16 03:51:33;;;;;;;23.73;21.33;;;6.40;99.90;;;;;;5016834;28;20274;-82
2021/11/16 03:54:00;;;;;;;21.83;19.77;;;6.40;99.90;;;;;;5024040;28;20201;-82
2021/11/16 03:56:27;;;;;;;23.87;21.30;;;6.40;99.90;;;;;;5025668;28;20200;-81
2021/11/16 03:58:54;;;;;;;23.33;21.00;;;6.40;99.90;;;;;;5024366;28;20195;-81
2021/11/16 04:01:23;;;;;;;23.97;21.40;;;6.40;99.90;;;;;;5011731;28;20201;-81
2021/11/16 04:03:51;;;;;;;23.47;21.07;;;6.40;99.90;;;;;;5014038;28;20259;-79
2021/11/16 04:06:21;;;;;;;22.70;20.43;;;6.40;99.90;;;;;;5030513;28;20196;-79
2021/11/16 04:08:48;;;;;;;21.77;19.77;;;6.40;99.90;;;;;;5023105;28;20205;-80
2021/11/16 04:11:15;;;;;;;22.90;20.37;;;6.40;99.90;;;;;;5009895;28;20247;-80
2021/11/16 04:13:42;;;;;;;20.70;18.50;;;6.40;99.90;;;;;;5015071;28;20201;-80
2021/11/16 04:16:09;;;;;;;21.70;19.50;;;6.40;99.90;;;;;;5017923;28;20208;-80
2021/11/16 04:18:36;;;;;;;22.40;20.13;;;6.40;99.90;;;;;;5015801;28;20193;-79
2021/11/16 04:21:05;;;;;;;22.23;20.13;;;6.40;99.90;;;;;;5015432;28;20254;-78
2021/11/16 04:23:32;;;;;;;22.43;20.33;;;6.40;99.90;;;;;;5023074;28;20228;-81
2021/11/16 04:25:59;;;;;;;21.40;19.30;;;6.30;99.90;;;;;;5029153;28;20236;-82
2021/11/16 04:28:26;;;;;;;22.60;20.23;;;6.30;99.90;;;;;;5025919;28;20254;-82
2021/11/16 04:30:54;;;;;;;22.40;20.10;;;6.30;99.90;;;;;;5031505;28;20680;-82
2021/11/16 04:33:22;;;;;;;21.37;19.27;;;6.30;99.90;;;;;;5028237;28;20214;-82
2021/11/16 04:35:49;;;;;;;22.63;20.33;;;6.30;99.90;;;;;;5031494;28;20195;-83
2021/11/16 04:38:18;;;;;;;20.87;19.07;;;6.20;99.90;;;;;;5029119;28;20299;-81
2021/11/16 04:40:49;;;;;;;21.97;19.60;;;6.20;99.90;;;;;;5017243;28;20205;-84
2021/11/16 04:43:19;;;;;;;20.07;18.47;;;6.20;99.90;;;;;;5043542;28;20221;-80
2021/11/16 04:45:51;;;;;;;20.63;18.73;;;6.20;99.90;;;;;;5027233;28;20302;-80
2021/11/16 04:48:31;;;;;;;21.93;19.73;;;6.20;99.90;;;;;;5034170;28;20290;-80
2021/11/16 04:51:15;;;;;;;22.50;20.30;;;6.20;99.90;;;;;;5018804;28;20200;-82
2021/11/16 05:04:52;;;;;;;22.47;20.40;;;6.20;99.90;;;;;;5025260;28;20757;-83
2021/11/16 05:07:21;;;;;;;20.80;18.80;;;6.20;99.90;;;;;;5026864;28;20208;-82
2021/11/16 05:09:50;;;;;;;22.80;20.60;;;6.20;99.90;;;;;;5021912;28;20332;-82
2021/11/16 05:12:18;;;;;;;21.10;19.30;;;6.30;99.90;;;;;;5028623;28;20220;-81
2021/11/16 05:14:45;;;;;;;21.03;19.07;;;6.30;99.90;;;;;;5021078;28;20243;-83
2021/11/16 05:17:12;;;;;;;22.13;19.83;;;6.20;99.90;;;;;;5019229;28;20251;-81
2021/11/16 05:19:39;;;;;;;21.93;19.90;;;6.20;99.90;;;;;;5021679;28;20454;-80
2021/11/16 05:22:07;;;;;;;23.53;21.23;;;6.20;99.90;;;;;;5021878;28;20231;-80
2021/11/16 05:24:33;;;;;;;22.23;20.23;;;6.20;99.90;;;;;;5026458;28;20216;-81
2021/11/16 05:27:02;;;;;;;21.87;19.83;;;6.20;99.90;;;;;;5023668;28;20189;-81
2021/11/16 05:29:29;;;;;;;21.60;19.60;;;6.20;99.90;;;;;;5020875;28;20199;-82
2021/11/16 05:31:56;;;;;;;20.20;18.50;;;6.20;99.90;;;;;;5013766;28;20247;-81
2021/11/16 05:34:23;;;;;;;22.53;20.43;;;6.20;99.90;;;;;;5022175;28;20258;-78
2021/11/16 05:36:50;;;;;;;22.40;20.20;;;6.20;99.90;;;;;;5017670;28;20205;-80
2021/11/16 05:39:16;;;;;;;21.13;19.23;;;6.20;99.90;;;;;;5025039;28;20626;-81
2021/11/16 05:41:44;;;;;;;21.07;19.20;;;6.20;99.90;;;;;;5024292;28;20231;-81
2021/11/16 05:44:13;;;;;;;21.67;19.67;;;6.20;99.90;;;;;;5016780;28;20764;-81
2021/11/16 05:46:39;;;;;;;21.70;19.70;;;6.20;99.90;;;;;;5024160;28;20212;-80
2021/11/16 05:49:06;;;;;;;21.53;19.63;;;6.20;99.90;;;;;;5019918;28;20575;-81
2021/11/16 05:51:33;;;;;;;21.30;19.43;;;6.30;99.90;;;;;;5023578;28;20301;-80
2021/11/16 05:54:02;;;;;;;22.07;19.97;;;6.30;99.90;;;;;;5022292;28;20658;-81
2021/11/16 05:56:31;;;;;;;21.07;19.13;;;6.30;99.90;;;;;;5019123;28;20585;-80
2021/11/16 05:58:58;;;;;;;20.80;19.00;;;6.30;99.90;;;;;;5023923;28;20621;-81
2021/11/16 06:01:30;;;;;;;21.63;19.60;;;6.30;99.90;;;;;;5025731;28;20193;-81
2021/11/16 06:03:58;;;;;;;20.67;18.67;;;6.30;99.90;;;;;;5023904;28;20229;-81
2021/11/16 06:06:27;;;;;;;20.23;18.33;;;6.30;99.90;;;;;;5027310;28;20507;-81
2021/11/16 06:08:54;;;;;;;18.83;17.23;;;6.20;99.90;;;;;;5025231;28;20684;-81
2021/11/16 06:11:23;;;;;;;18.80;17.10;;;6.20;99.90;;;;;;5028441;28;20271;-81
2021/11/16 06:13:52;;;;;;;19.23;17.53;;;6.20;99.90;;;;;;5026869;28;20296;-81
2021/11/16 06:16:19;;;;;;;18.33;16.77;;;6.20;99.90;;;;;;5030512;28;20203;-81
2021/11/16 06:18:52;;;;;;;19.53;17.73;;;6.20;99.90;;;;;;5027191;28;20204;-81
2021/11/16 06:21:20;;;;;;;19.40;17.77;;;6.20;99.90;;;;;;5022848;28;20197;-81
2021/11/16 06:23:47;;;;;;;19.73;17.90;;;6.20;99.90;;;;;;5025985;28;20673;-82
2021/11/16 06:26:14;;;;;;;20.00;18.20;;;6.10;99.90;;;;;;5026783;28;20256;-81
2021/11/16 06:28:41;;;;;;;19.50;17.90;;;6.10;99.90;;;;;;5026349;28;20201;-82
2021/11/16 06:31:08;;;;;;;19.87;18.17;;;6.10;99.90;;;;;;5020753;28;20274;-81
2021/11/16 06:33:35;;;;;;;19.83;18.13;;;6.10;99.90;;;;;;5023358;28;20267;-81
2021/11/16 06:36:04;;;;;;;20.47;18.50;;;6.10;99.90;;;;;;5020615;28;20561;-81
2021/11/16 06:38:31;;;;;;;19.83;18.13;;;6.10;99.90;;;;;;5024973;28;20192;-81
2021/11/16 06:40:58;;;;;;;20.13;18.30;;;6.10;99.90;;;;;;5025046;28;20271;-80
2021/11/16 06:43:27;;;;;;;20.00;18.30;;;6.10;99.90;;;;;;5028257;28;20204;-81
2021/11/16 06:45:57;;;;;;;21.67;19.63;;;6.10;99.90;;;;;;5025473;28;20204;-81
2021/11/16 06:48:25;;;;;;;20.53;18.73;;;6.20;99.90;;;;;;5025814;28;20201;-81
2021/11/16 06:50:54;;;;;;;20.90;19.00;;;6.20;99.90;;;;;;5026462;28;20203;-81
2021/11/16 06:53:25;;;;;;;19.10;17.47;;;6.20;99.90;;;;;;5021139;28;20312;-81
2021/11/16 06:55:52;;;;;;;19.87;18.17;;;6.20;99.90;;;;;;5023312;28;20206;-81
2021/11/16 06:58:19;;;;;;;20.90;19.20;;;6.20;99.90;;;;;;5025018;28;20232;-83
2021/11/16 07:00:46;;;;;;;21.43;19.50;;;6.10;99.90;;;;;;5025234;28;20197;-80
2021/11/16 07:03:17;;;;;;;21.23;19.13;;;6.10;99.90;;;;;;5027942;28;20636;-81
2021/11/16 07:05:48;;;;;;;21.33;19.43;;;6.10;99.90;;;;;;5027689;28;20217;-81
2021/11/16 07:08:30;;;;;;;21.67;19.77;;;6.20;99.90;;;;;;5028186;28;20200;-80
2021/11/16 07:11:04;;;;;;;21.40;19.37;;;6.20;99.90;;;;;;5026655;28;20698;-81
2021/11/16 07:13:30;;;;;;;20.53;18.83;;;6.20;99.90;;;;;;5014821;28;20212;-82
2021/11/16 07:15:57;;;;;;;20.60;18.70;;;6.20;99.90;;;;;;5022069;28;20209;-81
2021/11/16 07:18:25;;;;;;;20.77;18.97;;;6.20;99.90;;;;;;5027134;28;20254;-81
2021/11/16 07:20:58;;;;;;;21.07;19.17;;;6.20;99.90;;;;;;5025782;28;20231;-81
2021/11/16 07:23:25;;;;;;;22.60;20.30;;;6.20;99.90;;;;;;5027284;28;20751;-81
2021/11/16 07:25:53;;;;;;;21.47;19.47;;;6.20;99.90;;;;;;5026258;28;20334;-81
2021/11/16 07:28:20;;;;;;;21.60;19.60;;;6.30;99.90;;;;;;5020543;28;20208;-81
2021/11/16 07:30:49;;;;;;;22.20;19.90;;;6.20;99.90;;;;;;5023066;28;20297;-80
2021/11/16 07:33:19;;;;;;;22.13;20.13;;;6.30;99.90;;;;;;5025703;28;20721;-81
2021/11/16 07:35:46;;;;;;;21.77;19.83;;;6.30;99.90;;;;;;5025279;28;20189;-81
2021/11/16 07:38:18;;;;;;;21.80;19.80;;;6.30;99.90;;;;;;5018461;28;20554;-81
2021/11/16 07:40:48;;;;;;;21.63;19.53;;;6.40;99.90;;;;;;5028099;28;20663;-80
2021/11/16 07:43:17;;;;;;;21.63;19.50;;;6.40;99.90;;;;;;5026367;28;20230;-82
2021/11/16 07:45:46;;;;;;;22.00;19.70;;;6.50;99.90;;;;;;5025192;28;20278;-81
2021/11/16 07:48:18;;;;;;;20.53;18.53;;;6.50;99.90;;;;;;5022049;28;20669;-81
2021/11/16 07:50:47;;;;;;;21.13;19.00;;;6.50;99.90;;;;;;5025391;28;20587;-81
2021/11/16 07:53:21;;;;;;;21.23;19.33;;;6.50;99.90;;;;;;5026109;28;20370;-81
2021/11/16 07:55:58;;;;;;;20.73;18.83;;;6.50;99.90;;;;;;5019091;28;20197;-81
2021/11/16 07:58:31;;;;;;;21.63;19.60;;;6.50;99.90;;;;;;5026904;28;20201;-81
2021/11/16 08:01:01;;;;;;;21.23;19.13;;;6.50;99.90;;;;;;5032176;28;20200;-81
2021/11/16 08:03:38;;;;;;;20.93;18.93;;;6.40;99.90;;;;;;5017991;28;20252;-81
2021/11/16 08:06:11;;;;;;;20.37;18.53;;;6.40;99.90;;;;;;5021380;28;20213;-82
2021/11/16 08:08:52;;;;;;;20.40;18.50;;;6.40;99.90;;;;;;5031109;28;20205;-81
2021/11/16 08:11:22;;;;;;;20.03;18.13;;;6.50;99.90;;;;;;5025803;28;20192;-81
2021/11/16 08:13:57;;;;;;;20.67;18.57;;;6.50;99.90;;;;;;5025109;28;20684;-81
2021/11/16 08:16:24;;;;;;;22.03;19.73;;;6.50;99.90;;;;;;5026839;28;20238;-81
2021/11/16 08:18:55;;;;;;;20.50;18.57;;;6.50;99.90;;;;;;5024417;28;20575;-81
2021/11/16 08:21:22;;;;;;;20.33;18.33;;;6.50;99.90;;;;;;5027245;28;20200;-81
2021/11/16 08:23:56;;;;;;;19.77;17.97;;;6.50;99.90;;;;;;5022336;28;20263;-81
2021/11/16 08:26:25;;;;;;;21.83;19.50;;;6.50;99.90;;;;;;5019408;28;20219;-80
2021/11/16 08:28:55;;;;;;;20.50;18.47;;;6.50;99.90;;;;;;5021998;28;20201;-82
2021/11/16 08:31:22;;;;;;;20.67;18.67;;;6.50;99.90;;;;;;5023737;28;20197;-81
2021/11/16 08:33:52;;;;;;;20.23;18.20;;;6.50;99.90;;;;;;5023346;28;20225;-81
2021/11/16 08:36:25;;;;;;;20.57;18.50;;;6.60;99.90;;;;;;5026884;28;20220;-81
2021/11/16 08:38:55;;;;;;;21.40;19.17;;;6.60;99.90;;;;;;5026350;28;20205;-81
2021/11/16 08:41:31;;;;;;;21.20;19.17;;;6.60;99.90;;;;;;5023312;28;20254;-81
2021/11/16 08:44:15;;;;;;;20.27;18.37;;;6.50;99.90;;;;;;5026686;28;20219;-81
2021/11/16 08:46:46;;;;;;;21.10;19.13;;;6.50;99.90;;;;;;5017185;28;20254;-81
2021/11/16 08:49:40;;;;;;;21.07;19.17;;;6.50;99.90;;;;;;5020219;28;20300;-81
2021/11/16 08:52:16;;;;;;;21.90;19.70;;;6.50;99.90;;;;;;5011056;28;20288;-81
2021/11/16 08:54:53;;;;;;;24.00;21.43;;;6.50;99.90;;;;;;5021471;28;20578;-81
2021/11/16 08:57:20;;;;;;;25.73;21.47;;;6.50;99.90;;;;;;5023369;28;20204;-81
2021/11/16 08:59:49;;;;;;;21.50;19.27;;;6.50;99.90;;;;;;5023326;28;20259;-80
2021/11/16 09:02:18;;;;;;;21.03;18.90;;;6.50;99.90;;;;;;5027255;28;20222;-81
2021/11/16 09:04:45;;;;;;;21.57;19.37;;;6.60;99.90;;;;;;5017955;28;20206;-81
2021/11/16 09:07:25;;;;;;;22.47;20.07;;;6.60;99.90;;;;;;5022923;28;20223;-81
2021/11/16 09:09:55;;;;;;;22.20;20.00;;;6.70;99.90;;;;;;5024053;28;20204;-81
2021/11/16 09:12:34;;;;;;;21.30;19.10;;;6.70;99.90;;;;;;5020843;28;20272;-81
2021/11/16 09:15:04;;;;;;;20.40;18.53;;;6.60;99.90;;;;;;5020590;28;20566;-81
2021/11/16 09:17:31;;;;;;;20.93;18.83;;;6.70;99.90;;;;;;5015186;28;20209;-80
2021/11/16 09:20:31;;;;;;;24.27;19.60;;;6.60;99.90;;;;;;5023049;28;20682;-81
2021/11/16 09:22:57;;;;;;;22.57;20.27;;;6.60;99.90;;;;;;5019277;28;20220;-81
2021/11/16 09:25:28;;;;;;;22.77;20.27;;;6.60;99.90;;;;;;5025795;28;20270;-81
2021/11/16 09:28:01;;;;;;;22.50;20.23;;;6.60;99.90;;;;;;5024480;28;20265;-81
2021/11/16 09:30:36;;;;;;;22.13;19.87;;;6.60;99.90;;;;;;5018961;28;20230;-81
2021/11/16 09:33:07;;;;;;;21.30;19.10;;;6.60;99.90;;;;;;5027710;28;20596;-81
2021/11/16 09:35:49;;;;;;;22.37;19.97;;;6.60;99.90;;;;;;5022849;28;20409;-81
2021/11/16 09:38:35;;;;;;;21.67;19.47;;;6.70;99.90;;;;;;5027194;28;20256;-81
2021/11/16 09:41:02;;;;;;;21.03;18.83;;;6.70;99.90;;;;;;5021113;28;20228;-81
2021/11/16 09:43:29;;;;;;;20.17;18.17;;;6.70;99.90;;;;;;5022794;28;20244;-82
2021/11/16 09:46:05;;;;;;;20.93;18.83;;;6.70;99.90;;;;;;5022207;28;20221;-81
2021/11/16 09:48:32;;;;;;;20.07;18.17;;;6.80;99.90;;;;;;5015082;28;20198;-81
2021/11/16 09:51:11;;;;;;;20.73;18.63;;;6.80;99.90;;;;;;5018780;28;20208;-80
2021/11/16 09:53:38;;;;;;;20.93;18.83;;;6.80;99.90;;;;;;5015665;28;20201;-81
2021/11/16 09:56:24;;;;;;;21.90;19.63;;;6.70;99.90;;;;;;5023327;28;20631;-81
2021/11/16 09:58:52;;;;;;;21.43;18.80;;;6.70;99.90;;;;;;5024594;28;20204;-81
2021/11/16 10:01:27;;;;;;;19.83;17.93;;;6.70;99.90;;;;;;5019212;28;20204;-81
2021/11/16 10:04:19;;;;;;;19.73;17.77;;;6.80;99.90;;;;;;5020643;28;20243;-81
2021/11/16 10:06:45;;;;;;;19.37;17.47;;;6.80;99.90;;;;;;5014207;28;20201;-81
2021/11/16 10:09:12;;;;;;;19.67;17.77;;;6.90;99.90;;;;;;5023540;28;20611;-81
2021/11/16 10:11:44;;;;;;;20.07;18.07;;;6.90;99.90;;;;;;5024990;28;20247;-81
2021/11/16 10:14:17;;;;;;;19.20;17.40;;;6.90;99.90;;;;;;5023062;28;20213;-82
2021/11/16 10:16:48;;;;;;;19.30;17.40;;;6.90;99.90;;;;;;5021570;28;20279;-81
2021/11/16 10:19:15;;;;;;;17.97;16.37;;;6.90;99.90;;;;;;5021085;28;20209;-81
2021/11/16 10:21:42;;;;;;;18.93;17.23;;;6.90;99.90;;;;;;5022496;28;20643;-81
2021/11/16 10:24:30;;;;;;;18.23;16.63;;;6.90;99.90;;;;;;5020102;28;20197;-83
2021/11/16 10:27:01;;;;;;;19.20;17.30;;;6.80;99.90;;;;;;5025168;28;20201;-81
2021/11/16 10:29:30;;;;;;;17.20;15.80;;;6.80;99.90;;;;;;5014356;28;20201;-81
2021/11/16 10:31:58;;;;;;;18.87;17.27;;;6.90;99.90;;;;;;5022190;28;20288;-81
2021/11/16 10:34:40;;;;;;;17.77;16.17;;;6.90;99.90;;;;;;5024823;28;20197;-81
2021/11/16 10:37:07;;;;;;;18.27;16.57;;;6.90;99.90;;;;;;5021034;28;20671;-81
2021/11/16 10:39:34;;;;;;;17.83;16.20;;;6.90;99.90;;;;;;5021962;28;20196;-81
2021/11/16 10:42:04;;;;;;;19.30;17.60;;;6.90;99.90;;;;;;5018459;28;20239;-81
2021/11/16 10:44:36;;;;;;;17.93;16.37;;;6.90;99.90;;;;;;5030115;28;20588;-81
2021/11/16 10:47:06;;;;;;;18.10;16.50;;;6.90;99.90;;;;;;5025140;28;20715;-81
2021/11/16 10:49:33;;;;;;;19.23;17.33;;;6.90;99.90;;;;;;5028962;28;20283;-81
2021/11/16 10:52:02;;;;;;;20.53;18.63;;;6.90;99.90;;;;;;5021963;28;20225;-81
2021/11/16 10:54:28;;;;;;;18.97;17.23;;;6.90;99.90;;;;;;5021615;28;20212;-81
2021/11/16 10:57:00;;;;;;;19.37;17.60;;;6.90;99.90;;;;;;5026607;28;20209;-81
2021/11/16 10:59:31;;;;;;;18.90;17.17;;;6.90;99.90;;;;;;5023263;28;20283;-81
2021/11/16 11:02:01;;;;;;;19.00;17.30;;;6.90;99.90;;;;;;5023768;28;20225;-81
2021/11/16 11:04:32;;;;;;;18.30;16.73;;;7.00;99.90;;;;;;5019436;28;20193;-81
2021/11/16 11:07:09;;;;;;;18.67;16.97;;;7.00;99.90;;;;;;5025185;28;20190;-82
2021/11/16 11:09:36;;;;;;;20.80;18.87;;;7.10;99.90;;;;;;5019629;28;20190;-81
2021/11/16 11:12:03;;;;;;;20.37;18.43;;;7.10;99.90;;;;;;5025412;28;20702;-81
2021/11/16 11:14:34;;;;;;;19.03;17.33;;;7.10;99.90;;;;;;5032184;28;20231;-81
2021/11/16 11:17:04;;;;;;;19.77;18.07;;;7.10;99.90;;;;;;5029795;28;20741;-81
2021/11/16 11:19:35;;;;;;;18.93;17.17;;;7.10;99.90;;;;;;5017673;28;20626;-81
2021/11/16 11:22:11;;;;;;;19.07;17.23;;;7.10;99.90;;;;;;5024535;28;20698;-81
2021/11/16 11:24:42;;;;;;;18.27;16.67;;;7.10;99.90;;;;;;5024116;28;20197;-81
2021/11/16 11:27:19;;;;;;;18.53;16.87;;;7.10;99.90;;;;;;5026795;28;20193;-81
2021/11/16 11:29:52;;;;;;;18.73;17.10;;;7.10;99.90;;;;;;5023639;28;20198;-81
2021/11/16 11:32:21;;;;;;;19.27;17.57;;;7.10;99.90;;;;;;5027489;28;20218;-81
2021/11/16 11:34:58;;;;;;;18.97;17.37;;;7.20;99.90;;;;;;5020178;28;20748;-81
2021/11/16 11:37:28;;;;;;;18.27;16.83;;;7.20;99.90;;;;;;5019767;28;20204;-81
2021/11/16 11:39:59;;;;;;;18.87;17.27;;;7.30;99.90;;;;;;5029265;28;20625;-80
2021/11/16 11:42:26;;;;;;;18.10;16.60;;;7.30;99.90;;;;;;5022753;28;20217;-81
2021/11/16 11:45:07;;;;;;;17.83;16.43;;;7.30;99.90;;;;;;5023850;28;20202;-81
2021/11/16 11:47:35;;;;;;;18.50;16.90;;;7.30;99.90;;;;;;5028074;28;20208;-81
2021/11/16 11:50:20;;;;;;;17.77;16.27;;;7.30;99.90;;;;;;5024945;28;20206;-81
2021/11/16 11:52:47;;;;;;;18.00;16.40;;;7.20;99.90;;;;;;5018656;28;20278;-81
2021/11/16 11:55:14;;;;;;;18.13;16.63;;;7.20;99.90;;;;;;5024643;28;20200;-81
2021/11/16 11:57:41;;;;;;;17.23;15.83;;;7.20;99.90;;;;;;5020579;28;20672;-81
2021/11/16 12:00:11;;;;;;;18.73;17.03;;;7.20;99.90;;;;;;5019701;28;20232;-81
2021/11/16 12:02:39;;;;;;;18.00;16.50;;;7.10;99.90;;;;;;5021989;28;20655;-81
2021/11/16 12:05:08;;;;;;;17.50;16.07;;;7.10;99.90;;;;;;5027661;28;20597;-81
2021/11/16 12:07:35;;;;;;;17.90;16.40;;;7.10;99.90;;;;;;5027769;28;20331;-81
2021/11/16 12:10:02;;;;;;;18.20;16.60;;;7.10;99.90;;;;;;5028809;28;20200;-81
2021/11/16 12:12:29;;;;;;;17.17;15.80;;;7.10;99.90;;;;;;5022626;28;20230;-81
2021/11/16 12:15:02;;;;;;;17.70;16.30;;;7.10;99.90;;;;;;5026502;28;20205;-81
2021/11/16 12:17:31;;;;;;;18.07;16.47;;;7.10;99.90;;;;;;5012729;28;20199;-81
2021/11/16 12:19:58;;;;;;;17.37;15.97;;;7.10;99.90;;;;;;5021265;28;20206;-80
2021/11/16 12:22:28;;;;;;;17.33;16.03;;;7.10;99.90;;;;;;5024295;28;20243;-80
2021/11/16 12:24:59;;;;;;;17.67;16.27;;;7.20;99.90;;;;;;5025520;28;20197;-81
2021/11/16 12:27:31;;;;;;;17.40;15.93;;;7.20;99.90;;;;;;5024888;28;20639;-80
2021/11/16 12:30:00;;;;;;;16.87;15.57;;;7.20;99.90;;;;;;5024519;28;20237;-81
2021/11/16 12:32:29;;;;;;;17.37;15.97;;;7.30;99.90;;;;;;5022312;28;20227;-81
2021/11/16 12:35:01;;;;;;;16.83;15.53;;;7.30;99.90;;;;;;5026576;28;20208;-81
2021/11/16 12:37:43;;;;;;;16.53;15.23;;;7.30;99.90;;;;;;5027614;28;20200;-81
2021/11/16 12:40:18;;;;;;;16.63;15.33;;;7.20;99.90;;;;;;5020653;28;20216;-81
2021/11/16 12:43:15;;;;;;;16.43;15.23;;;7.30;99.90;;;;;;5022424;28;20240;-81
2021/11/16 12:45:44;;;;;;;15.93;14.73;;;7.20;99.90;;;;;;5019776;28;20220;-81
2021/11/16 12:48:13;;;;;;;16.03;14.87;;;7.30;99.90;;;;;;5023174;28;20209;-79
2021/11/16 12:51:05;;;;;;;15.80;14.67;;;7.30;99.90;;;;;;5035183;28;20199;-81
2021/11/16 12:53:56;;;;;;;16.40;15.20;;;7.30;99.90;;;;;;5034864;28;20216;-81
2021/11/16 12:56:41;;;;;;;15.90;14.80;;;7.40;99.90;;;;;;5023866;28;20204;-81
2021/11/16 12:59:10;;;;;;;17.20;15.70;;;7.30;99.90;;;;;;5022441;28;20722;-81
2021/11/16 13:01:42;;;;;;;16.17;15.07;;;7.30;99.90;;;;;;5023783;28;20638;-81